Terminal Aerodrome Forecast
Issued by NWS Boston, MA

Home | Current Version | Previous Version | Text Only | Print | Product List | Glossary Off
Versions: 1 2 3 4 5 6 7 8 9 10 11 12 13 14 15 16 17 18 19 20 21 22 23 24 25 26 27
000 FTUS41 KBOX 192054 AAC TAFBOS TAF AMD KBOS 192054Z 1921/2024 10009KT 1/2SM FG VV002 TEMPO 1922/1923 3SM BR SCT002 SCT250 FM192300 16004KT P6SM SCT050 FM200200 22005KT P6SM SCT100 FM200500 26005KT P6SM BKN060 FM201600 28010KT P6SM FEW250=

USA.gov is the U.S. government's official web portal to all federal, state and local government web resources and services.